Terminal Aerodrome Forecast
Issued by NWS

Home | Current Version | Previous Version | Text Only | Print | Product List | Glossary On
Versions: 1 2 3 4 5 6 7 8 9 10 11 12 13 14 15 16 17 18 19 20 21 22 23 24
000
FTUS43 KPAH 191125
TAFCGI
TAF
KCGI 191125Z 1912/2012 24006KT 3/4SM BR BKN003
      TEMPO 1912/1913 2SM BR SCT003 BKN040
     FM191300 23005KT 3SM BR SCT015 BKN040
     FM191500 21005KT P6SM SCT050=

USA.gov is the U.S. government's official web portal to all federal, state and local government web resources and services.